sensor_id;sensor_type;location;lat;lon;timestamp;temperature;humidity
12413;DHT22;13877;18.896;-99.222;2023-09-07T00:00:50;26.20;99.90
12413;DHT22;13877;18.896;-99.222;2023-09-07T00:03:17;26.00;99.90
12413;DHT22;13877;18.896;-99.222;2023-09-07T00:05:44;25.90;99.90
12413;DHT22;13877;18.896;-99.222;2023-09-07T00:08:11;25.80;99.90
12413;DHT22;13877;18.896;-99.222;2023-09-07T00:10:38;25.70;99.90
12413;DHT22;13877;18.896;-99.222;2023-09-07T00:13:05;25.60;99.90
12413;DHT22;13877;18.896;-99.222;2023-09-07T00:15:37;25.50;99.90
12413;DHT22;13877;18.896;-99.222;2023-09-07T00:18:05;25.30;99.90
12413;DHT22;13877;18.896;-99.222;2023-09-07T00:20:32;25.20;99.90
12413;DHT22;13877;18.896;-99.222;2023-09-07T00:23:00;25.00;99.90
12413;DHT22;13877;18.896;-99.222;2023-09-07T00:25:27;24.90;99.90
12413;DHT22;13877;18.896;-99.222;2023-09-07T00:27:54;24.80;99.90
12413;DHT22;13877;18.896;-99.222;2023-09-07T00:30:20;24.70;99.90
12413;DHT22;13877;18.896;-99.222;2023-09-07T00:32:48;24.60;99.90
12413;DHT22;13877;18.896;-99.222;2023-09-07T00:35:14;24.50;99.90
12413;DHT22;13877;18.896;-99.222;2023-09-07T00:37:41;24.50;99.90
12413;DHT22;13877;18.896;-99.222;2023-09-07T00:40:08;24.50;99.90
12413;DHT22;13877;18.896;-99.222;2023-09-07T00:42:36;24.40;99.90
12413;DHT22;13877;18.896;-99.222;2023-09-07T00:45:03;24.30;99.90
12413;DHT22;13877;18.896;-99.222;2023-09-07T00:47:33;24.30;99.90
12413;DHT22;13877;18.896;-99.222;2023-09-07T00:50:04;24.30;99.90
12413;DHT22;13877;18.896;-99.222;2023-09-07T00:52:34;24.30;99.90
12413;DHT22;13877;18.896;-99.222;2023-09-07T00:55:03;24.20;99.90
12413;DHT22;13877;18.896;-99.222;2023-09-07T00:57:31;24.10;99.90
12413;DHT22;13877;18.896;-99.222;2023-09-07T00:59:58;24.00;99.90
12413;DHT22;13877;18.896;-99.222;2023-09-07T01:02:24;23.90;99.90
12413;DHT22;13877;18.896;-99.222;2023-09-07T01:04:52;23.90;99.90
12413;DHT22;13877;18.896;-99.222;2023-09-07T01:07:32;23.90;99.90
12413;DHT22;13877;18.896;-99.222;2023-09-07T01:10:00;23.90;99.90
12413;DHT22;13877;18.896;-99.222;2023-09-07T01:12:27;23.90;99.90
12413;DHT22;13877;18.896;-99.222;2023-09-07T01:14:54;23.80;99.90
12413;DHT22;13877;18.896;-99.222;2023-09-07T01:17:22;23.80;99.90
12413;DHT22;13877;18.896;-99.222;2023-09-07T01:19:50;23.70;99.90
12413;DHT22;13877;18.896;-99.222;2023-09-07T01:22:19;23.70;99.90
12413;DHT22;13877;18.896;-99.222;2023-09-07T01:24:50;23.70;99.90
12413;DHT22;13877;18.896;-99.222;2023-09-07T01:27:19;23.70;99.90
12413;DHT22;13877;18.896;-99.222;2023-09-07T01:29:46;23.70;99.90
12413;DHT22;13877;18.896;-99.222;2023-09-07T01:32:13;23.70;99.90
12413;DHT22;13877;18.896;-99.222;2023-09-07T01:34:40;23.70;99.90
12413;DHT22;13877;18.896;-99.222;2023-09-07T01:37:07;23.60;99.90
12413;DHT22;13877;18.896;-99.222;2023-09-07T01:39:34;23.60;99.90
12413;DHT22;13877;18.896;-99.222;2023-09-07T01:42:01;23.60;99.90
12413;DHT22;13877;18.896;-99.222;2023-09-07T01:44:27;23.60;99.90
12413;DHT22;13877;18.896;-99.222;2023-09-07T01:46:55;23.60;99.90
12413;DHT22;13877;18.896;-99.222;2023-09-07T01:49:23;23.50;99.90
12413;DHT22;13877;18.896;-99.222;2023-09-07T01:51:51;23.40;99.90
12413;DHT22;13877;18.896;-99.222;2023-09-07T01:54:20;23.40;99.90
12413;DHT22;13877;18.896;-99.222;2023-09-07T01:56:47;23.40;99.90
12413;DHT22;13877;18.896;-99.222;2023-09-07T01:59:14;23.40;99.90
12413;DHT22;13877;18.896;-99.222;2023-09-07T02:01:40;23.40;99.90
12413;DHT22;13877;18.896;-99.222;2023-09-07T02:04:07;23.40;99.90
12413;DHT22;13877;18.896;-99.222;2023-09-07T02:06:34;23.40;99.90
12413;DHT22;13877;18.896;-99.222;2023-09-07T02:09:01;23.60;99.90
12413;DHT22;13877;18.896;-99.222;2023-09-07T02:11:28;23.50;99.90
12413;DHT22;13877;18.896;-99.222;2023-09-07T02:13:55;23.00;99.90
12413;DHT22;13877;18.896;-99.222;2023-09-07T02:16:22;22.50;99.90
12413;DHT22;13877;18.896;-99.222;2023-09-07T02:18:50;22.20;99.90
12413;DHT22;13877;18.896;-99.222;2023-09-07T02:21:16;22.10;99.90
12413;DHT22;13877;18.896;-99.222;2023-09-07T02:23:43;21.90;99.90
12413;DHT22;13877;18.896;-99.222;2023-09-07T02:26:10;21.90;99.90
12413;DHT22;13877;18.896;-99.222;2023-09-07T02:28:37;21.70;99.90
12413;DHT22;13877;18.896;-99.222;2023-09-07T02:31:05;21.40;99.90
12413;DHT22;13877;18.896;-99.222;2023-09-07T02:33:32;21.20;99.90
12413;DHT22;13877;18.896;-99.222;2023-09-07T02:36:00;21.00;99.90
12413;DHT22;13877;18.896;-99.222;2023-09-07T02:38:27;20.70;99.90
12413;DHT22;13877;18.896;-99.222;2023-09-07T02:40:55;20.60;99.90
12413;DHT22;13877;18.896;-99.222;2023-09-07T02:43:22;20.60;99.90
12413;DHT22;13877;18.896;-99.222;2023-09-07T02:45:50;20.40;99.90
12413;DHT22;13877;18.896;-99.222;2023-09-07T02:48:19;20.40;99.90
12413;DHT22;13877;18.896;-99.222;2023-09-07T02:50:48;20.30;99.90
12413;DHT22;13877;18.896;-99.222;2023-09-07T02:53:17;20.10;99.90
12413;DHT22;13877;18.896;-99.222;2023-09-07T02:55:44;19.90;99.90
12413;DHT22;13877;18.896;-99.222;2023-09-07T02:58:11;19.80;99.90
12413;DHT22;13877;18.896;-99.222;2023-09-07T03:00:45;19.70;99.90
12413;DHT22;13877;18.896;-99.222;2023-09-07T03:03:15;19.70;99.90
12413;DHT22;13877;18.896;-99.222;2023-09-07T03:05:44;19.70;99.90
12413;DHT22;13877;18.896;-99.222;2023-09-07T03:08:11;19.80;99.90
12413;DHT22;13877;18.896;-99.222;2023-09-07T03:10:39;19.70;99.90
12413;DHT22;13877;18.896;-99.222;2023-09-07T03:13:07;19.60;99.90
12413;DHT22;13877;18.896;-99.222;2023-09-07T03:15:34;19.50;99.90
12413;DHT22;13877;18.896;-99.222;2023-09-07T03:18:05;19.30;99.90
12413;DHT22;13877;18.896;-99.222;2023-09-07T03:20:35;19.40;99.90
12413;DHT22;13877;18.896;-99.222;2023-09-07T03:23:03;19.60;99.90
12413;DHT22;13877;18.896;-99.222;2023-09-07T03:25:30;19.70;99.90
12413;DHT22;13877;18.896;-99.222;2023-09-07T03:27:57;19.70;99.90
12413;DHT22;13877;18.896;-99.222;2023-09-07T03:30:23;19.90;99.90
12413;DHT22;13877;18.896;-99.222;2023-09-07T03:32:52;20.00;99.90
12413;DHT22;13877;18.896;-99.222;2023-09-07T03:35:19;20.20;99.90
12413;DHT22;13877;18.896;-99.222;2023-09-07T03:37:46;20.20;99.90
12413;DHT22;13877;18.896;-99.222;2023-09-07T03:40:13;20.30;99.90
12413;DHT22;13877;18.896;-99.222;2023-09-07T03:42:40;20.40;99.90
12413;DHT22;13877;18.896;-99.222;2023-09-07T03:45:09;20.50;99.90
12413;DHT22;13877;18.896;-99.222;2023-09-07T03:47:37;20.50;99.90
12413;DHT22;13877;18.896;-99.222;2023-09-07T03:50:04;20.80;99.90
12413;DHT22;13877;18.896;-99.222;2023-09-07T03:52:32;20.80;99.90
12413;DHT22;13877;18.896;-99.222;2023-09-07T03:55:01;20.70;99.90
12413;DHT22;13877;18.896;-99.222;2023-09-07T03:57:28;20.60;99.90
12413;DHT22;13877;18.896;-99.222;2023-09-07T03:59:56;20.60;99.90
12413;DHT22;13877;18.896;-99.222;2023-09-07T04:02:24;20.60;99.90
12413;DHT22;13877;18.896;-99.222;2023-09-07T04:04:54;20.50;99.90
12413;DHT22;13877;18.896;-99.222;2023-09-07T04:07:24;20.40;99.90
12413;DHT22;13877;18.896;-99.222;2023-09-07T04:09:51;20.20;99.90
12413;DHT22;13877;18.896;-99.222;2023-09-07T04:12:18;20.20;99.90
12413;DHT22;13877;18.896;-99.222;2023-09-07T04:14:45;20.20;99.90
12413;DHT22;13877;18.896;-99.222;2023-09-07T04:17:11;20.20;99.90
12413;DHT22;13877;18.896;-99.222;2023-09-07T04:19:38;20.20;99.90
12413;DHT22;13877;18.896;-99.222;2023-09-07T04:22:05;20.20;99.90
12413;DHT22;13877;18.896;-99.222;2023-09-07T04:24:32;20.20;99.90
12413;DHT22;13877;18.896;-99.222;2023-09-07T04:27:01;20.20;99.90
12413;DHT22;13877;18.896;-99.222;2023-09-07T04:29:28;20.20;99.90
12413;DHT22;13877;18.896;-99.222;2023-09-07T04:31:55;20.20;99.90
12413;DHT22;13877;18.896;-99.222;2023-09-07T04:34:23;20.10;99.90
12413;DHT22;13877;18.896;-99.222;2023-09-07T04:36:50;19.90;99.90
12413;DHT22;13877;18.896;-99.222;2023-09-07T04:39:17;20.10;99.90
12413;DHT22;13877;18.896;-99.222;2023-09-07T04:41:44;20.20;99.90
12413;DHT22;13877;18.896;-99.222;2023-09-07T04:44:11;20.30;99.90
12413;DHT22;13877;18.896;-99.222;2023-09-07T04:46:38;20.40;99.90
12413;DHT22;13877;18.896;-99.222;2023-09-07T04:49:06;20.40;99.90
12413;DHT22;13877;18.896;-99.222;2023-09-07T04:51:34;20.50;99.90
12413;DHT22;13877;18.896;-99.222;2023-09-07T04:54:01;20.50;99.90
12413;DHT22;13877;18.896;-99.222;2023-09-07T04:56:28;20.60;99.90
12413;DHT22;13877;18.896;-99.222;2023-09-07T04:58:55;20.70;99.90
12413;DHT22;13877;18.896;-99.222;2023-09-07T05:01:22;20.70;99.90
12413;DHT22;13877;18.896;-99.222;2023-09-07T05:03:53;20.70;99.90
12413;DHT22;13877;18.896;-99.222;2023-09-07T05:06:22;20.70;99.90
12413;DHT22;13877;18.896;-99.222;2023-09-07T05:08:50;20.80;99.90
12413;DHT22;13877;18.896;-99.222;2023-09-07T05:11:17;20.80;99.90
12413;DHT22;13877;18.896;-99.222;2023-09-07T05:13:43;20.90;99.90
12413;DHT22;13877;18.896;-99.222;2023-09-07T05:16:10;20.90;99.90
12413;DHT22;13877;18.896;-99.222;2023-09-07T05:18:37;21.00;99.90
12413;DHT22;13877;18.896;-99.222;2023-09-07T05:21:14;21.10;99.90
12413;DHT22;13877;18.896;-99.222;2023-09-07T05:23:42;21.10;99.90
12413;DHT22;13877;18.896;-99.222;2023-09-07T05:26:09;21.10;99.90
12413;DHT22;13877;18.896;-99.222;2023-09-07T05:28:36;21.10;99.90
12413;DHT22;13877;18.896;-99.222;2023-09-07T05:31:03;21.00;99.90
12413;DHT22;13877;18.896;-99.222;2023-09-07T05:33:31;20.90;99.90
12413;DHT22;13877;18.896;-99.222;2023-09-07T05:35:58;20.80;99.90
12413;DHT22;13877;18.896;-99.222;2023-09-07T05:38:25;20.70;99.90
12413;DHT22;13877;18.896;-99.222;2023-09-07T05:40:52;20.80;99.90
12413;DHT22;13877;18.896;-99.222;2023-09-07T05:43:22;20.80;99.90
12413;DHT22;13877;18.896;-99.222;2023-09-07T05:45:49;21.00;99.90
12413;DHT22;13877;18.896;-99.222;2023-09-07T05:48:16;20.90;99.90
12413;DHT22;13877;18.896;-99.222;2023-09-07T05:50:46;21.00;99.90
12413;DHT22;13877;18.896;-99.222;2023-09-07T05:53:13;20.90;99.90
12413;DHT22;13877;18.896;-99.222;2023-09-07T05:55:40;20.90;99.90
12413;DHT22;13877;18.896;-99.222;2023-09-07T06:01:11;21.00;99.90
12413;DHT22;13877;18.896;-99.222;2023-09-07T06:03:58;21.00;99.90
12413;DHT22;13877;18.896;-99.222;2023-09-07T06:06:43;21.00;99.90
12413;DHT22;13877;18.896;-99.222;2023-09-07T06:12:14;20.90;99.90
12413;DHT22;13877;18.896;-99.222;2023-09-07T06:14:41;20.90;99.90
12413;DHT22;13877;18.896;-99.222;2023-09-07T06:17:23;20.80;99.90
12413;DHT22;13877;18.896;-99.222;2023-09-07T06:19:50;20.70;99.90
12413;DHT22;13877;18.896;-99.222;2023-09-07T06:22:17;20.60;99.90
12413;DHT22;13877;18.896;-99.222;2023-09-07T06:24:44;20.40;99.90
12413;DHT22;13877;18.896;-99.222;2023-09-07T06:27:11;20.30;99.90
12413;DHT22;13877;18.896;-99.222;2023-09-07T06:29:38;20.20;99.90
12413;DHT22;13877;18.896;-99.222;2023-09-07T06:32:05;20.10;99.90
12413;DHT22;13877;18.896;-99.222;2023-09-07T06:34:32;20.10;99.90
12413;DHT22;13877;18.896;-99.222;2023-09-07T06:36:59;19.90;99.90
12413;DHT22;13877;18.896;-99.222;2023-09-07T06:39:26;19.80;99.90
12413;DHT22;13877;18.896;-99.222;2023-09-07T06:41:53;19.80;99.90
12413;DHT22;13877;18.896;-99.222;2023-09-07T06:44:22;19.70;99.90
12413;DHT22;13877;18.896;-99.222;2023-09-07T06:46:50;19.50;99.90
12413;DHT22;13877;18.896;-99.222;2023-09-07T06:49:18;19.10;99.90
12413;DHT22;13877;18.896;-99.222;2023-09-07T06:51:45;18.80;99.90
12413;DHT22;13877;18.896;-99.222;2023-09-07T06:54:13;18.60;99.90
12413;DHT22;13877;18.896;-99.222;2023-09-07T06:56:41;18.50;99.90
12413;DHT22;13877;18.896;-99.222;2023-09-07T06:59:08;18.40;99.90
12413;DHT22;13877;18.896;-99.222;2023-09-07T07:01:35;18.50;99.90
12413;DHT22;13877;18.896;-99.222;2023-09-07T07:04:04;18.50;99.90
12413;DHT22;13877;18.896;-99.222;2023-09-07T07:06:31;18.60;99.90
12413;DHT22;13877;18.896;-99.222;2023-09-07T07:08:58;18.60;99.90
12413;DHT22;13877;18.896;-99.222;2023-09-07T07:11:24;18.60;99.90
12413;DHT22;13877;18.896;-99.222;2023-09-07T07:13:51;18.60;99.90
12413;DHT22;13877;18.896;-99.222;2023-09-07T07:16:19;18.60;99.90
12413;DHT22;13877;18.896;-99.222;2023-09-07T07:18:46;18.60;99.90
12413;DHT22;13877;18.896;-99.222;2023-09-07T07:21:14;18.60;99.90
12413;DHT22;13877;18.896;-99.222;2023-09-07T07:23:42;18.60;99.90
12413;DHT22;13877;18.896;-99.222;2023-09-07T07:26:09;18.60;99.90
12413;DHT22;13877;18.896;-99.222;2023-09-07T07:28:36;18.50;99.90
12413;DHT22;13877;18.896;-99.222;2023-09-07T07:31:10;18.40;99.90
12413;DHT22;13877;18.896;-99.222;2023-09-07T07:33:38;18.40;99.90
12413;DHT22;13877;18.896;-99.222;2023-09-07T07:36:05;18.50;99.90
12413;DHT22;13877;18.896;-99.222;2023-09-07T07:38:32;18.70;99.90
12413;DHT22;13877;18.896;-99.222;2023-09-07T07:40:59;18.80;99.90
12413;DHT22;13877;18.896;-99.222;2023-09-07T07:43:26;18.80;99.90
12413;DHT22;13877;18.896;-99.222;2023-09-07T07:45:54;18.70;99.90
12413;DHT22;13877;18.896;-99.222;2023-09-07T07:48:22;18.60;99.90
12413;DHT22;13877;18.896;-99.222;2023-09-07T07:50:49;18.60;99.90
12413;DHT22;13877;18.896;-99.222;2023-09-07T07:53:16;18.50;99.90
12413;DHT22;13877;18.896;-99.222;2023-09-07T07:55:44;18.40;99.90
12413;DHT22;13877;18.896;-99.222;2023-09-07T07:58:15;18.40;99.90
12413;DHT22;13877;18.896;-99.222;2023-09-07T08:00:42;18.30;99.90
12413;DHT22;13877;18.896;-99.222;2023-09-07T08:03:18;18.20;99.90
12413;DHT22;13877;18.896;-99.222;2023-09-07T08:09:27;18.20;99.90
12413;DHT22;13877;18.896;-99.222;2023-09-07T08:11:54;18.20;99.90
12413;DHT22;13877;18.896;-99.222;2023-09-07T08:14:22;18.10;99.90
12413;DHT22;13877;18.896;-99.222;2023-09-07T08:16:50;18.00;99.90
12413;DHT22;13877;18.896;-99.222;2023-09-07T08:19:17;18.00;99.90
12413;DHT22;13877;18.896;-99.222;2023-09-07T08:21:44;18.00;99.90
12413;DHT22;13877;18.896;-99.222;2023-09-07T08:24:12;17.90;99.90
12413;DHT22;13877;18.896;-99.222;2023-09-07T08:26:39;17.80;99.90
12413;DHT22;13877;18.896;-99.222;2023-09-07T08:29:07;17.80;99.90
12413;DHT22;13877;18.896;-99.222;2023-09-07T08:31:38;17.70;99.90
12413;DHT22;13877;18.896;-99.222;2023-09-07T08:34:07;17.80;99.90
12413;DHT22;13877;18.896;-99.222;2023-09-07T08:36:35;17.80;99.90
12413;DHT22;13877;18.896;-99.222;2023-09-07T08:39:04;17.80;99.90
12413;DHT22;13877;18.896;-99.222;2023-09-07T08:41:37;17.80;99.90
12413;DHT22;13877;18.896;-99.222;2023-09-07T08:44:17;17.90;99.90
12413;DHT22;13877;18.896;-99.222;2023-09-07T08:46:45;17.90;99.90
12413;DHT22;13877;18.896;-99.222;2023-09-07T08:49:13;17.90;99.90
12413;DHT22;13877;18.896;-99.222;2023-09-07T08:51:40;18.00;99.90
12413;DHT22;13877;18.896;-99.222;2023-09-07T08:54:08;18.00;99.90
12413;DHT22;13877;18.896;-99.222;2023-09-07T08:56:36;18.10;99.90
12413;DHT22;13877;18.896;-99.222;2023-09-07T08:59:03;18.10;99.90
12413;DHT22;13877;18.896;-99.222;2023-09-07T09:01:31;18.10;99.90
12413;DHT22;13877;18.896;-99.222;2023-09-07T09:03:59;18.10;99.90
12413;DHT22;13877;18.896;-99.222;2023-09-07T09:06:26;18.10;99.90
12413;DHT22;13877;18.896;-99.222;2023-09-07T09:08:56;18.10;99.90
12413;DHT22;13877;18.896;-99.222;2023-09-07T09:11:24;18.10;99.90
12413;DHT22;13877;18.896;-99.222;2023-09-07T09:13:53;18.10;99.90
12413;DHT22;13877;18.896;-99.222;2023-09-07T09:16:20;18.30;99.90
12413;DHT22;13877;18.896;-99.222;2023-09-07T09:18:55;18.40;99.90
12413;DHT22;13877;18.896;-99.222;2023-09-07T09:21:23;18.50;99.90
12413;DHT22;13877;18.896;-99.222;2023-09-07T09:23:53;18.50;99.90
12413;DHT22;13877;18.896;-99.222;2023-09-07T09:26:21;18.50;99.90
12413;DHT22;13877;18.896;-99.222;2023-09-07T09:28:50;18.50;99.90
12413;DHT22;13877;18.896;-99.222;2023-09-07T09:31:19;18.50;99.90
12413;DHT22;13877;18.896;-99.222;2023-09-07T09:33:50;18.40;99.90
12413;DHT22;13877;18.896;-99.222;2023-09-07T09:36:21;18.40;99.90
12413;DHT22;13877;18.896;-99.222;2023-09-07T09:38:52;18.40;99.90
12413;DHT22;13877;18.896;-99.222;2023-09-07T09:41:21;18.30;99.90
12413;DHT22;13877;18.896;-99.222;2023-09-07T09:43:49;18.30;99.90
12413;DHT22;13877;18.896;-99.222;2023-09-07T09:46:18;18.40;99.90
12413;DHT22;13877;18.896;-99.222;2023-09-07T09:48:45;18.40;99.90
12413;DHT22;13877;18.896;-99.222;2023-09-07T09:51:13;18.40;99.90
12413;DHT22;13877;18.896;-99.222;2023-09-07T09:53:42;18.40;99.90
12413;DHT22;13877;18.896;-99.222;2023-09-07T09:56:09;18.40;99.90
12413;DHT22;13877;18.896;-99.222;2023-09-07T09:58:36;18.40;99.90
12413;DHT22;13877;18.896;-99.222;2023-09-07T10:01:04;18.30;99.90
12413;DHT22;13877;18.896;-99.222;2023-09-07T10:03:33;18.30;99.90
12413;DHT22;13877;18.896;-99.222;2023-09-07T10:11:32;18.30;99.90
12413;DHT22;13877;18.896;-99.222;2023-09-07T10:14:00;18.30;99.90
12413;DHT22;13877;18.896;-99.222;2023-09-07T10:16:47;18.20;99.90
12413;DHT22;13877;18.896;-99.222;2023-09-07T10:19:22;18.20;99.90
12413;DHT22;13877;18.896;-99.222;2023-09-07T10:21:55;18.20;99.90
12413;DHT22;13877;18.896;-99.222;2023-09-07T10:24:56;18.20;99.90
12413;DHT22;13877;18.896;-99.222;2023-09-07T10:27:22;18.40;99.90
12413;DHT22;13877;18.896;-99.222;2023-09-07T10:29:52;18.40;99.90
12413;DHT22;13877;18.896;-99.222;2023-09-07T10:32:19;18.40;99.90
12413;DHT22;13877;18.896;-99.222;2023-09-07T10:34:48;18.40;99.90
12413;DHT22;13877;18.896;-99.222;2023-09-07T10:37:16;18.40;99.90
12413;DHT22;13877;18.896;-99.222;2023-09-07T10:39:44;18.40;99.90
12413;DHT22;13877;18.896;-99.222;2023-09-07T10:42:26;18.40;99.90
12413;DHT22;13877;18.896;-99.222;2023-09-07T10:44:53;18.30;99.90
12413;DHT22;13877;18.896;-99.222;2023-09-07T10:47:20;18.30;99.90
12413;DHT22;13877;18.896;-99.222;2023-09-07T10:49:48;18.30;99.90
12413;DHT22;13877;18.896;-99.222;2023-09-07T10:52:14;18.30;99.90
12413;DHT22;13877;18.896;-99.222;2023-09-07T10:54:41;18.30;99.90
12413;DHT22;13877;18.896;-99.222;2023-09-07T10:57:09;18.30;99.90
12413;DHT22;13877;18.896;-99.222;2023-09-07T10:59:36;18.30;99.90
12413;DHT22;13877;18.896;-99.222;2023-09-07T11:02:06;18.30;99.90
12413;DHT22;13877;18.896;-99.222;2023-09-07T11:04:34;18.30;99.90
12413;DHT22;13877;18.896;-99.222;2023-09-07T11:07:01;18.40;99.90
12413;DHT22;13877;18.896;-99.222;2023-09-07T11:09:30;18.40;99.90
12413;DHT22;13877;18.896;-99.222;2023-09-07T11:12:03;18.40;99.90
12413;DHT22;13877;18.896;-99.222;2023-09-07T11:14:30;18.40;99.90
12413;DHT22;13877;18.896;-99.222;2023-09-07T11:16:57;18.30;99.90
12413;DHT22;13877;18.896;-99.222;2023-09-07T11:19:24;18.30;99.90
12413;DHT22;13877;18.896;-99.222;2023-09-07T11:21:53;18.20;99.90
12413;DHT22;13877;18.896;-99.222;2023-09-07T11:24:20;18.20;99.90
12413;DHT22;13877;18.896;-99.222;2023-09-07T11:26:47;18.30;99.90
12413;DHT22;13877;18.896;-99.222;2023-09-07T11:29:15;18.30;99.90
12413;DHT22;13877;18.896;-99.222;2023-09-07T11:31:43;18.30;99.90
12413;DHT22;13877;18.896;-99.222;2023-09-07T11:34:14;18.30;99.90
12413;DHT22;13877;18.896;-99.222;2023-09-07T11:36:43;18.30;99.90
12413;DHT22;13877;18.896;-99.222;2023-09-07T11:39:10;18.30;99.90
12413;DHT22;13877;18.896;-99.222;2023-09-07T11:41:44;18.30;99.90
12413;DHT22;13877;18.896;-99.222;2023-09-07T11:44:11;18.30;99.90
12413;DHT22;13877;18.896;-99.222;2023-09-07T11:46:38;18.20;99.90
12413;DHT22;13877;18.896;-99.222;2023-09-07T11:49:05;18.30;99.90
12413;DHT22;13877;18.896;-99.222;2023-09-07T11:51:32;18.40;99.90
12413;DHT22;13877;18.896;-99.222;2023-09-07T11:53:59;18.40;99.90
12413;DHT22;13877;18.896;-99.222;2023-09-07T11:56:26;18.50;99.90
12413;DHT22;13877;18.896;-99.222;2023-09-07T11:58:53;18.50;99.90
12413;DHT22;13877;18.896;-99.222;2023-09-07T12:01:21;18.50;99.90
12413;DHT22;13877;18.896;-99.222;2023-09-07T12:03:48;18.40;99.90
12413;DHT22;13877;18.896;-99.222;2023-09-07T12:06:15;18.30;99.90
12413;DHT22;13877;18.896;-99.222;2023-09-07T12:08:42;18.30;99.90
12413;DHT22;13877;18.896;-99.222;2023-09-07T12:11:24;18.40;99.90
12413;DHT22;13877;18.896;-99.222;2023-09-07T12:13:50;18.40;99.90
12413;DHT22;13877;18.896;-99.222;2023-09-07T12:16:18;18.40;99.90
12413;DHT22;13877;18.896;-99.222;2023-09-07T12:18:44;18.30;99.90
12413;DHT22;13877;18.896;-99.222;2023-09-07T12:21:11;18.20;99.90
12413;DHT22;13877;18.896;-99.222;2023-09-07T12:23:38;18.20;99.90
12413;DHT22;13877;18.896;-99.222;2023-09-07T12:26:05;18.20;99.90
12413;DHT22;13877;18.896;-99.222;2023-09-07T12:28:32;18.10;99.90
12413;DHT22;13877;18.896;-99.222;2023-09-07T12:30:59;18.10;99.90
12413;DHT22;13877;18.896;-99.222;2023-09-07T12:33:25;18.10;99.90
12413;DHT22;13877;18.896;-99.222;2023-09-07T12:35:52;18.10;99.90
12413;DHT22;13877;18.896;-99.222;2023-09-07T12:38:19;18.10;99.90
12413;DHT22;13877;18.896;-99.222;2023-09-07T12:40:48;18.10;99.90
12413;DHT22;13877;18.896;-99.222;2023-09-07T12:43:15;18.20;99.90
12413;DHT22;13877;18.896;-99.222;2023-09-07T12:45:42;18.20;99.90
12413;DHT22;13877;18.896;-99.222;2023-09-07T12:48:08;18.30;99.90
12413;DHT22;13877;18.896;-99.222;2023-09-07T12:50:35;18.40;99.90
12413;DHT22;13877;18.896;-99.222;2023-09-07T12:53:02;18.40;99.90
12413;DHT22;13877;18.896;-99.222;2023-09-07T12:55:29;18.50;99.90
12413;DHT22;13877;18.896;-99.222;2023-09-07T12:57:56;18.50;99.90
12413;DHT22;13877;18.896;-99.222;2023-09-07T13:00:23;18.60;99.90
12413;DHT22;13877;18.896;-99.222;2023-09-07T13:02:49;18.60;99.90
12413;DHT22;13877;18.896;-99.222;2023-09-07T13:05:16;18.60;99.90
12413;DHT22;13877;18.896;-99.222;2023-09-07T13:07:43;18.70;99.90
12413;DHT22;13877;18.896;-99.222;2023-09-07T13:10:10;18.70;99.90
12413;DHT22;13877;18.896;-99.222;2023-09-07T13:12:37;18.80;99.90
12413;DHT22;13877;18.896;-99.222;2023-09-07T13:15:04;18.80;99.90
12413;DHT22;13877;18.896;-99.222;2023-09-07T13:17:31;18.90;99.90
12413;DHT22;13877;18.896;-99.222;2023-09-07T13:19:58;19.00;99.90
12413;DHT22;13877;18.896;-99.222;2023-09-07T13:22:25;19.10;99.90
12413;DHT22;13877;18.896;-99.222;2023-09-07T13:24:52;19.20;99.90
12413;DHT22;13877;18.896;-99.222;2023-09-07T13:27:19;19.40;99.90
12413;DHT22;13877;18.896;-99.222;2023-09-07T13:29:46;19.60;99.90
12413;DHT22;13877;18.896;-99.222;2023-09-07T13:32:12;19.80;99.90
12413;DHT22;13877;18.896;-99.222;2023-09-07T13:34:39;19.90;99.90
12413;DHT22;13877;18.896;-99.222;2023-09-07T13:37:06;20.20;99.90
12413;DHT22;13877;18.896;-99.222;2023-09-07T13:39:33;20.50;99.90
12413;DHT22;13877;18.896;-99.222;2023-09-07T13:42:00;20.60;99.90
12413;DHT22;13877;18.896;-99.222;2023-09-07T13:44:26;20.80;99.90
12413;DHT22;13877;18.896;-99.222;2023-09-07T13:46:53;20.90;99.90
12413;DHT22;13877;18.896;-99.222;2023-09-07T13:49:21;21.00;99.90
12413;DHT22;13877;18.896;-99.222;2023-09-07T13:51:48;21.20;99.90
12413;DHT22;13877;18.896;-99.222;2023-09-07T13:54:14;21.20;99.90
12413;DHT22;13877;18.896;-99.222;2023-09-07T13:56:41;21.40;99.90
12413;DHT22;13877;18.896;-99.222;2023-09-07T13:59:11;21.50;99.90
12413;DHT22;13877;18.896;-99.222;2023-09-07T14:01:38;21.50;99.90
12413;DHT22;13877;18.896;-99.222;2023-09-07T14:04:05;21.50;99.90
12413;DHT22;13877;18.896;-99.222;2023-09-07T14:06:32;21.40;99.90
12413;DHT22;13877;18.896;-99.222;2023-09-07T14:08:58;21.40;99.90
12413;DHT22;13877;18.896;-99.222;2023-09-07T14:11:25;21.20;99.90
12413;DHT22;13877;18.896;-99.222;2023-09-07T14:13:52;21.20;99.90
12413;DHT22;13877;18.896;-99.222;2023-09-07T14:16:21;21.10;99.90
12413;DHT22;13877;18.896;-99.222;2023-09-07T14:18:48;21.00;99.90
12413;DHT22;13877;18.896;-99.222;2023-09-07T14:21:15;21.10;99.90
12413;DHT22;13877;18.896;-99.222;2023-09-07T14:23:43;21.70;99.90
12413;DHT22;13877;18.896;-99.222;2023-09-07T14:26:10;22.50;99.90
12413;DHT22;13877;18.896;-99.222;2023-09-07T14:28:37;22.90;99.90
12413;DHT22;13877;18.896;-99.222;2023-09-07T14:31:06;22.70;99.90
12413;DHT22;13877;18.896;-99.222;2023-09-07T14:33:34;22.00;99.90
12413;DHT22;13877;18.896;-99.222;2023-09-07T14:36:05;21.90;99.90
12413;DHT22;13877;18.896;-99.222;2023-09-07T14:38:32;21.80;99.90
12413;DHT22;13877;18.896;-99.222;2023-09-07T14:41:06;21.60;99.90
12413;DHT22;13877;18.896;-99.222;2023-09-07T14:43:33;21.60;99.90
12413;DHT22;13877;18.896;-99.222;2023-09-07T14:46:00;21.90;99.90
12413;DHT22;13877;18.896;-99.222;2023-09-07T14:48:27;22.70;99.90
12413;DHT22;13877;18.896;-99.222;2023-09-07T14:50:53;23.50;99.90
12413;DHT22;13877;18.896;-99.222;2023-09-07T14:53:20;24.00;99.90
12413;DHT22;13877;18.896;-99.222;2023-09-07T14:55:47;24.40;99.90
12413;DHT22;13877;18.896;-99.222;2023-09-07T14:58:14;24.30;99.90
12413;DHT22;13877;18.896;-99.222;2023-09-07T15:00:41;24.20;99.90
12413;DHT22;13877;18.896;-99.222;2023-09-07T15:03:08;24.70;99.90
12413;DHT22;13877;18.896;-99.222;2023-09-07T15:05:35;24.40;99.90
12413;DHT22;13877;18.896;-99.222;2023-09-07T15:08:02;24.60;99.90
12413;DHT22;13877;18.896;-99.222;2023-09-07T15:10:30;25.00;99.90
12413;DHT22;13877;18.896;-99.222;2023-09-07T15:13:01;24.70;99.90
12413;DHT22;13877;18.896;-99.222;2023-09-07T15:15:30;24.70;99.90
12413;DHT22;13877;18.896;-99.222;2023-09-07T15:18:00;24.80;99.90
12413;DHT22;13877;18.896;-99.222;2023-09-07T15:20:27;24.70;99.90
12413;DHT22;13877;18.896;-99.222;2023-09-07T15:22:54;24.60;99.90